PWSweather.com
Personal Weather Stations
Station Observations
KWIATHEL1
Marinette County, Athelstane, WI 54104

Marinette CountyAthelstane, WI 54104

Lat: 45.4, Lon: -88.12

Elevation: 960

Station Type: OS WM-918

http://weather.athelstanewi.com

Latest ConditionsUpdated 8:15:33 AM CDT Sunday, Apr 20, 2014
Currently Today's Max Today's Min Today's Average
Temperature 45.3°F7.4°C 45.3°F7.4°C 40.8°F4.9°C 42.2°F5.7°C
Dew Point 42.6°F5.9°C 42.9°F6.1°C 30.4°F-0.9°C 35.9°F2.2°C
Winds Calm Calm 8.7 mph SW14.0 kmh SW - 0.9 mph 1.4 kmh
Wind Gusts -- 9.4 mph15.1 kmh - -
Humidity 90% 91% 63% 78%
Pressure 30.07 in1018.3 mb 30.13 in1020.3 mb 30.07 in1018.3 mb -
Hour Temp Dew Point Humidity Winds Wind Gusts Pressure Precip Precip Rate Daily Precip Total
08:15 AM 45.3°F7.4°C 42.6°F5.9°C 90% Calm Calm -- 30.07 in1018.3 mb 0.00 in0.0 mm 0.00 in/hr0.0 mm/hr 0.16 in4.1 mm
08:00 AM 45.3°F7.4°C 42.9°F6.1°C 91% Calm Calm -- 30.07 in1018.3 mb 0.00 in0.0 mm 0.00 in/hr0.0 mm/hr 0.16 in4.1 mm
07:45 AM 45.1°F7.3°C 42.7°F5.9°C 91% Calm Calm -- 30.07 in1018.3 mb 0.04 in1.0 mm 0.00 in/hr0.0 mm/hr 0.16 in4.1 mm
07:30 AM 44.6°F7.0°C 41.9°F5.5°C 90% 8.1 mph WSW13.0 kmh WSW 8.1 mph13.0 kmh 30.07 in1018.3 mb 0.04 in1.0 mm 0.00 in/hr0.0 mm/hr 0.16 in4.1 mm
07:15 AM 44.2°F6.8°C 41.2°F5.1°C 89% 8.7 mph SW14.0 kmh SW 9.4 mph15.1 kmh 30.07 in1018.3 mb 0.04 in1.0 mm 0.00 in/hr0.0 mm/hr 0.16 in4.1 mm
07:00 AM 43.9°F6.6°C 40.3°F4.6°C 87% Calm Calm -- 30.07 in1018.3 mb 0.04 in1.0 mm 0.05 in/hr1.3 mm/hr 0.16 in4.1 mm
06:45 AM 43.0°F6.1°C 38.5°F3.6°C 84% Calm Calm -- 30.07 in1018.3 mb 0.00 in0.0 mm 0.00 in/hr0.0 mm/hr 0.12 in3.0 mm
06:30 AM 42.8°F6.0°C 37.7°F3.2°C 82% Calm Calm -- 30.07 in1018.3 mb 0.00 in0.0 mm 0.00 in/hr0.0 mm/hr 0.12 in3.0 mm
06:15 AM 42.6°F5.9°C 37.5°F3.1°C 82% Calm Calm -- 30.07 in1018.3 mb 0.00 in0.0 mm 0.00 in/hr0.0 mm/hr 0.12 in3.0 mm
06:00 AM 43.0°F6.1°C 38.2°F3.4°C 83% Calm Calm -- 30.07 in1018.3 mb 0.00 in0.0 mm 0.00 in/hr0.0 mm/hr 0.12 in3.0 mm
05:45 AM 43.0°F6.1°C 38.2°F3.4°C 83% Calm Calm -- 30.07 in1018.3 mb 0.04 in1.0 mm 0.00 in/hr0.0 mm/hr 0.12 in3.0 mm
05:30 AM 43.0°F6.1°C 38.5°F3.6°C 84% 4.7 mph WSW7.6 kmh WSW 4.7 mph7.6 kmh 30.07 in1018.3 mb 0.04 in1.0 mm 0.00 in/hr0.0 mm/hr 0.12 in3.0 mm
05:15 AM 43.2°F6.2°C 38.4°F3.6°C 83% 4.0 mph WSW6.4 kmh WSW 6.0 mph9.7 kmh 30.07 in1018.3 mb 0.04 in1.0 mm 0.00 in/hr0.0 mm/hr 0.12 in3.0 mm
05:00 AM 42.4°F5.8°C 37.0°F2.8°C 81% 4.7 mph N7.6 kmh N 4.7 mph7.6 kmh 30.07 in1018.3 mb 0.04 in1.0 mm 0.05 in/hr1.3 mm/hr 0.12 in3.0 mm
04:45 AM 41.9°F5.5°C 36.2°F2.3°C 80% Calm Calm -- 30.07 in1018.3 mb 0.00 in0.0 mm 0.00 in/hr0.0 mm/hr 0.08 in2.0 mm
04:30 AM 41.5°F5.3°C 35.8°F2.1°C 80% Calm Calm -- 30.07 in1018.3 mb 0.00 in0.0 mm 0.00 in/hr0.0 mm/hr 0.08 in2.0 mm
04:15 AM 41.0°F5.0°C 35.0°F1.7°C 79% Calm Calm -- 30.10 in1019.3 mb 0.00 in0.0 mm 0.00 in/hr0.0 mm/hr 0.08 in2.0 mm
04:00 AM 40.8°F4.9°C 34.5°F1.4°C 78% Calm Calm -- 30.10 in1019.3 mb 0.00 in0.0 mm 0.00 in/hr0.0 mm/hr 0.08 in2.0 mm
03:45 AM 41.2°F5.1°C 34.9°F1.6°C 78% Calm Calm -- 30.10 in1019.3 mb 0.00 in0.0 mm 0.00 in/hr0.0 mm/hr 0.08 in2.0 mm
03:30 AM 41.2°F5.1°C 34.9°F1.6°C 78% Calm Calm -- 30.07 in1018.3 mb 0.00 in0.0 mm 0.00 in/hr0.0 mm/hr 0.08 in2.0 mm
03:15 AM 41.2°F5.1°C 34.9°F1.6°C 78% Calm Calm -- 30.07 in1018.3 mb 0.00 in0.0 mm 0.00 in/hr0.0 mm/hr 0.08 in2.0 mm
03:00 AM 41.0°F5.0°C 34.4°F1.3°C 77% Calm Calm -- 30.07 in1018.3 mb 0.00 in0.0 mm 0.00 in/hr0.0 mm/hr 0.08 in2.0 mm
02:45 AM 41.0°F5.0°C 34.0°F1.1°C 76% Calm Calm -- 30.10 in1019.3 mb 0.04 in1.0 mm 0.00 in/hr0.0 mm/hr 0.08 in2.0 mm
02:30 AM 41.0°F5.0°C 33.7°F0.9°C 75% Calm Calm -- 30.10 in1019.3 mb 0.04 in1.0 mm 0.00 in/hr0.0 mm/hr 0.08 in2.0 mm
02:15 AM 41.0°F5.0°C 33.4°F0.8°C 74% Calm Calm -- 30.10 in1019.3 mb 0.04 in1.0 mm 0.00 in/hr0.0 mm/hr 0.08 in2.0 mm
02:00 AM 41.0°F5.0°C 33.4°F0.8°C 74% Calm Calm -- 30.10 in1019.3 mb 0.04 in1.0 mm 0.05 in/hr1.3 mm/hr 0.08 in2.0 mm
01:45 AM 41.2°F5.1°C 33.2°F0.7°C 73% Calm Calm -- 30.10 in1019.3 mb 0.00 in0.0 mm 0.00 in/hr0.0 mm/hr 0.04 in1.0 mm
01:30 AM 41.2°F5.1°C 32.5°F0.3°C 71% Calm Calm -- 30.10 in1019.3 mb 0.04 in1.0 mm 0.00 in/hr0.0 mm/hr 0.04 in1.0 mm
01:15 AM 41.2°F5.1°C 31.8°F-0.1°C 69% Calm Calm -- 30.13 in1020.3 mb 0.04 in1.0 mm 0.00 in/hr0.0 mm/hr 0.04 in1.0 mm
01:00 AM 41.2°F5.1°C 31.1°F-0.5°C 67% Calm Calm -- 30.10 in1019.3 mb 0.04 in1.0 mm 0.00 in/hr0.0 mm/hr 0.04 in1.0 mm
12:45 AM 41.4°F5.2°C 30.9°F-0.6°C 66% Calm Calm -- 30.13 in1020.3 mb 0.04 in1.0 mm 0.16 in/hr4.1 mm/hr 0.04 in1.0 mm
12:30 AM 41.4°F5.2°C 30.5°F-0.8°C 65% Calm Calm -- 30.13 in1020.3 mb 0.00 in0.0 mm 0.00 in/hr0.0 mm/hr 0.00 in0.0 mm
12:15 AM 41.7°F5.4°C 30.5°F-0.8°C 64% Calm Calm -- 30.10 in1019.3 mb 0.00 in0.0 mm 0.00 in/hr0.0 mm/hr 0.00 in0.0 mm
12:00 AM 42.1°F5.6°C 30.4°F-0.9°C 63% Calm Calm -- 30.13 in1020.3 mb 0.00 in0.0 mm 0.00 in/hr0.0 mm/hr 0.00 in0.0 mm